createdAt,value
2019-04-26T00:00:35.264Z,96464.42
2019-04-26T00:03:49.742Z,96472.73
2019-04-26T00:06:57.340Z,96470.19
2019-04-26T00:10:08.294Z,96464.28
2019-04-26T00:13:32.085Z,96464.28
2019-04-26T00:16:59.446Z,96477.96
2019-04-26T00:20:08.251Z,96480.59
2019-04-26T00:23:16.106Z,96475.80
2019-04-26T00:26:23.250Z,96479.05
2019-04-26T00:29:30.304Z,96480.67
2019-04-26T00:32:37.287Z,96477.28
2019-04-26T00:35:47.903Z,96474.61
2019-04-26T00:38:53.228Z,96476.19
2019-04-26T00:42:00.252Z,96469.78
2019-04-26T00:45:07.507Z,96475.02
2019-04-26T00:48:15.112Z,96476.62
2019-04-26T00:51:23.399Z,96480.41
2019-04-26T00:54:32.285Z,96481.53
2019-04-26T00:57:39.292Z,96485.73
2019-04-26T01:00:46.540Z,96491.78
2019-04-26T01:03:53.443Z,96495.02
2019-04-26T01:07:00.129Z,96495.02
2019-04-26T01:10:07.269Z,96501.38
2019-04-26T01:13:15.340Z,96506.27
2019-04-26T01:16:24.259Z,96502.63
2019-04-26T01:19:31.575Z,96506.83
2019-04-26T01:22:46.304Z,96510.14
2019-04-26T01:26:03.881Z,96510.14
2019-04-26T01:29:15.020Z,96504.59
2019-04-26T01:32:22.129Z,96511.06
2019-04-26T01:35:29.246Z,96507.42
2019-04-26T01:38:36.565Z,96505.39
2019-04-26T01:41:45.322Z,96481.63
2019-04-26T01:45:04.661Z,96481.63
2019-04-26T01:48:37.241Z,96497.70
2019-04-26T01:51:51.723Z,96502.33
2019-04-26T01:54:58.522Z,96508.23
2019-04-26T01:58:06.366Z,96513.66
2019-04-26T02:01:18.027Z,96518.31
2019-04-26T02:04:27.783Z,96517.18
2019-04-26T02:07:41.592Z,96526.23
2019-04-26T02:10:48.631Z,96529.48
2019-04-26T02:13:55.776Z,96511.89
2019-04-26T02:17:03.310Z,96511.89
2019-04-26T02:20:10.410Z,96533.08
2019-04-26T02:23:18.277Z,96530.92
2019-04-26T02:26:35.726Z,96528.09
2019-04-26T02:29:42.651Z,96531.50
2019-04-26T02:32:49.670Z,96540.00
2019-04-26T02:35:56.540Z,96552.75
2019-04-26T02:39:06.365Z,96529.64
2019-04-26T02:42:16.248Z,96529.64
2019-04-26T02:45:51.377Z,96553.61
2019-04-26T02:49:09.934Z,96542.64
2019-04-26T02:52:41.429Z,96530.65
2019-04-26T02:56:10.467Z,96541.61
2019-04-26T02:59:32.368Z,96554.14
2019-04-26T03:02:40.462Z,96536.12
2019-04-26T03:05:47.621Z,96536.12
2019-04-26T03:08:55.934Z,96560.20
2019-04-26T03:12:19.935Z,96560.20
2019-04-26T03:15:31.672Z,96563.02
2019-04-26T03:18:48.240Z,96566.24
2019-04-26T03:22:03.635Z,96574.17
2019-04-26T03:25:21.336Z,96576.59
2019-04-26T03:29:01.778Z,96570.02
2019-04-26T03:32:17.278Z,96569.31
2019-04-26T03:35:29.382Z,96566.59
2019-04-26T03:39:00.939Z,96566.59
2019-04-26T03:42:27.139Z,96584.82
2019-04-26T03:46:09.525Z,96584.82
2019-04-26T03:49:54.827Z,96596.45
2019-04-26T03:53:12.916Z,96579.08
2019-04-26T03:56:36.633Z,96579.08
2019-04-26T03:59:48.277Z,96609.95
2019-04-26T04:03:26.912Z,96610.02
2019-04-26T04:06:52.444Z,96609.77
2019-04-26T04:09:47.932Z,96613.12
2019-04-26T04:13:18.565Z,96614.73
2019-04-26T04:16:56.783Z,96620.64
2019-04-26T04:20:12.249Z,96620.64
2019-04-26T04:23:48.863Z,96627.32
2019-04-26T04:27:25.535Z,96623.47
2019-04-26T04:30:47.783Z,96634.44
2019-04-26T04:34:17.424Z,96634.44
2019-04-26T04:37:25.357Z,96642.87
2019-04-26T04:40:50.774Z,96628.28
2019-04-26T04:44:33.279Z,96630.06
2019-04-26T04:47:52.497Z,96639.55
2019-04-26T04:51:12.970Z,96636.84
2019-04-26T04:55:07.159Z,96633.95
2019-04-26T04:58:22.589Z,96633.72
2019-04-26T05:01:53.594Z,96643.36
2019-04-26T05:05:22.404Z,96636.91
2019-04-26T05:09:02.889Z,96636.91
2019-04-26T05:12:21.370Z,96640.74
2019-04-26T05:16:05.008Z,96639.16
2019-04-26T05:19:59.931Z,96642.95
2019-04-26T05:23:20.383Z,96643.69
2019-04-26T05:26:36.857Z,96655.13
2019-04-26T05:30:04.589Z,96653.34
2019-04-26T05:33:22.526Z,96663.04
2019-04-26T05:36:40.244Z,96663.04
2019-04-26T05:40:07.247Z,96665.91
2019-04-26T05:43:50.296Z,96677.13
2019-04-26T05:47:04.492Z,96667.80
2019-04-26T05:50:24.393Z,96675.31
2019-04-26T05:54:01.487Z,96679.09
2019-04-26T05:57:36.297Z,96669.33
2019-04-26T06:01:32.529Z,96666.74
2019-04-26T06:05:13.311Z,96667.34
2019-04-26T06:09:16.756Z,96668.14
2019-04-26T06:13:02.992Z,96678.80
2019-04-26T06:16:36.103Z,96682.14
2019-04-26T06:19:57.370Z,96674.81
2019-04-26T06:23:17.558Z,96682.80
2019-04-26T06:27:13.564Z,96665.41
2019-04-26T06:30:17.919Z,96665.41
2019-04-26T06:33:32.606Z,96660.03
2019-04-26T06:36:56.083Z,96679.43
2019-04-26T06:40:20.061Z,96679.43
2019-04-26T06:43:33.268Z,96677.56
2019-04-26T06:47:19.239Z,96681.77
2019-04-26T06:50:49.132Z,96672.80
2019-04-26T06:54:27.375Z,96693.96
2019-04-26T06:57:56.295Z,96693.96
2019-04-26T07:01:29.653Z,96689.02
2019-04-26T07:05:09.583Z,96686.22
2019-04-26T07:08:56.713Z,96680.73
2019-04-26T07:12:24.441Z,96680.73
2019-04-26T07:15:43.111Z,96683.03
2019-04-26T07:19:22.321Z,96665.13
2019-04-26T07:23:01.032Z,96676.88
2019-04-26T07:26:53.610Z,96684.20
2019-04-26T07:30:17.433Z,96696.40
2019-04-26T07:34:05.314Z,96714.59
2019-04-26T07:37:43.591Z,96714.59
2019-04-26T07:41:18.356Z,96694.53
2019-04-26T07:44:29.514Z,96694.53
2019-04-26T07:48:20.410Z,96710.66
2019-04-26T07:51:50.444Z,96710.90
2019-04-26T07:55:34.626Z,96720.16
2019-04-26T07:59:09.309Z,96717.17
2019-04-26T08:02:54.021Z,96720.59
2019-04-26T08:06:07.513Z,96712.85
2019-04-26T08:09:26.423Z,96684.41
2019-04-26T08:12:24.292Z,96684.41
2019-04-26T08:15:46.947Z,96702.92
2019-04-26T08:19:00.397Z,96700.93
2019-04-26T08:22:18.200Z,96689.03
2019-04-26T08:25:17.763Z,96691.53
2019-04-26T08:28:25.265Z,96691.45
2019-04-26T08:31:32.622Z,96701.92
2019-04-26T08:34:40.340Z,96701.57
2019-04-26T08:37:49.037Z,96704.25
2019-04-26T08:41:00.361Z,96718.52
2019-04-26T08:44:12.949Z,96726.91
2019-04-26T08:47:31.249Z,96717.31
2019-04-26T08:50:42.271Z,96716.47
2019-04-26T08:53:50.558Z,96722.43
2019-04-26T08:57:05.505Z,96731.04
2019-04-26T09:00:20.365Z,96714.91
2019-04-26T09:03:28.319Z,96714.91
2019-04-26T09:06:39.510Z,96734.14
2019-04-26T09:09:57.047Z,96728.77
2019-04-26T09:12:57.285Z,96728.77
2019-04-26T09:16:11.404Z,96739.89
2019-04-26T09:19:18.274Z,96735.17
2019-04-26T09:22:27.758Z,96759.34
2019-04-26T09:25:39.702Z,96753.93
2019-04-26T09:28:52.904Z,96764.89
2019-04-26T09:32:17.536Z,96761.99
2019-04-26T09:35:24.369Z,96767.81
2019-04-26T09:38:32.260Z,96767.11
2019-04-26T09:41:39.254Z,96758.83
2019-04-26T09:44:50.481Z,96769.80
2019-04-26T09:48:04.710Z,96773.43
2019-04-26T09:51:12.313Z,96780.39
2019-04-26T09:54:19.293Z,96775.80
2019-04-26T09:57:26.305Z,96781.78
2019-04-26T10:00:33.619Z,96795.66
2019-04-26T10:03:42.250Z,96790.55
2019-04-26T10:06:49.312Z,96792.86
2019-04-26T10:10:00.757Z,96807.98
2019-04-26T10:13:15.080Z,96796.73
2019-04-26T10:16:21.425Z,96801.67
2019-04-26T10:19:36.070Z,96800.25
2019-04-26T10:22:43.183Z,96797.94
2019-04-26T10:25:52.124Z,96794.05
2019-04-26T10:28:59.102Z,96802.47
2019-04-26T10:32:06.253Z,96807.33
2019-04-26T10:35:13.320Z,96810.48
2019-04-26T10:38:23.706Z,96810.16
2019-04-26T10:41:29.311Z,96805.98
2019-04-26T10:44:39.794Z,96813.55
2019-04-26T10:47:45.300Z,96815.68
2019-04-26T10:50:52.259Z,96814.41
2019-04-26T10:54:06.120Z,96814.30
2019-04-26T10:57:13.852Z,96818.01
2019-04-26T11:00:25.254Z,96818.10
2019-04-26T11:03:34.940Z,96808.71
2019-04-26T11:06:41.259Z,96808.71
2019-04-26T11:09:48.250Z,96815.11
2019-04-26T11:12:55.274Z,96806.13
2019-04-26T11:16:07.116Z,96823.45
2019-04-26T11:19:12.344Z,96823.39
2019-04-26T11:22:29.039Z,96823.76
2019-04-26T11:25:29.489Z,96814.13
2019-04-26T11:28:36.590Z,96803.56
2019-04-26T11:31:45.469Z,96831.75
2019-04-26T11:34:54.543Z,96831.75
2019-04-26T11:38:02.238Z,96834.75
2019-04-26T11:41:09.403Z,96829.69
2019-04-26T11:44:16.621Z,96830.36
2019-04-26T11:47:23.596Z,96824.59
2019-04-26T11:50:30.396Z,96846.84
2019-04-26T11:53:40.142Z,96846.84
2019-04-26T11:56:45.507Z,96854.49
2019-04-26T11:59:52.382Z,96859.75
2019-04-26T12:02:59.283Z,96870.50
2019-04-26T12:06:07.884Z,96878.56
2019-04-26T12:09:19.444Z,96876.95
2019-04-26T12:12:26.512Z,96881.88
2019-04-26T12:15:39.126Z,96881.07
2019-04-26T12:18:45.640Z,96882.66
2019-04-26T12:21:55.172Z,96890.20
2019-04-26T12:25:03.404Z,96881.35
2019-04-26T12:28:10.982Z,96890.69
2019-04-26T12:31:17.890Z,96889.94
2019-04-26T12:34:25.260Z,96893.27
2019-04-26T12:37:32.309Z,96890.61
2019-04-26T12:40:38.521Z,96895.02
2019-04-26T12:43:44.638Z,96902.77
2019-04-26T12:47:09.337Z,96898.45
2019-04-26T12:50:16.270Z,96898.45
2019-04-26T12:53:26.637Z,96892.97
2019-04-26T12:56:32.783Z,96891.30
2019-04-26T12:59:44.382Z,96900.43
2019-04-26T13:02:50.196Z,96908.58
2019-04-26T13:05:58.858Z,96897.94
2019-04-26T13:09:16.616Z,96895.38
2019-04-26T13:12:29.867Z,96898.92
2019-04-26T13:15:51.810Z,96898.92
2019-04-26T13:18:59.256Z,96901.23
2019-04-26T13:22:08.520Z,96896.36
2019-04-26T13:25:20.243Z,96901.64
2019-04-26T13:28:24.029Z,96916.09
2019-04-26T13:31:32.011Z,96922.71
2019-04-26T13:34:39.487Z,96886.73
2019-04-26T13:37:46.460Z,96886.73
2019-04-26T13:40:54.120Z,96890.59
2019-04-26T13:44:05.694Z,96890.59
2019-04-26T13:47:16.271Z,96912.19
2019-04-26T13:50:26.674Z,96928.72
2019-04-26T13:53:33.555Z,96967.05
2019-04-26T13:56:40.441Z,96967.05
2019-04-26T13:59:47.782Z,96971.02
2019-04-26T14:02:55.380Z,96968.07
2019-04-26T14:06:02.800Z,96968.16
2019-04-26T14:09:11.978Z,96972.88
2019-04-26T14:12:19.455Z,96973.11
2019-04-26T14:15:26.942Z,96978.56
2019-04-26T14:18:39.092Z,96976.80
2019-04-26T14:21:44.619Z,96981.02
2019-04-26T14:24:58.531Z,96977.08
2019-04-26T14:28:05.923Z,96984.09
2019-04-26T14:31:16.602Z,96976.69
2019-04-26T14:34:23.246Z,96970.64
2019-04-26T14:37:30.423Z,96972.09
2019-04-26T14:40:39.335Z,96973.25
2019-04-26T14:43:46.942Z,96972.75
2019-04-26T14:46:56.783Z,96977.00
2019-04-26T14:50:13.384Z,96956.76
2019-04-26T14:53:11.672Z,96956.76
2019-04-26T14:56:29.440Z,96970.02
2019-04-26T14:59:39.463Z,96963.23
2019-04-26T15:02:55.801Z,96966.63
2019-04-26T15:06:16.912Z,96964.59
2019-04-26T15:09:32.981Z,96957.39
2019-04-26T15:12:45.724Z,96957.39
2019-04-26T15:15:43.463Z,96968.83
2019-04-26T15:18:52.469Z,96970.04
2019-04-26T15:22:04.153Z,96987.94
2019-04-26T15:25:11.978Z,97002.72
2019-04-26T15:28:18.030Z,97009.47
2019-04-26T15:31:27.109Z,97023.39
2019-04-26T15:34:34.278Z,97033.47
2019-04-26T15:37:42.276Z,97045.13
2019-04-26T15:41:11.679Z,97051.16
2019-04-26T15:44:32.646Z,97059.95
2019-04-26T15:47:57.922Z,97055.49
2019-04-26T15:51:04.889Z,97066.00
2019-04-26T15:54:11.739Z,97062.56
2019-04-26T15:57:19.353Z,97073.50
2019-04-26T16:00:28.408Z,97091.78
2019-04-26T16:03:40.526Z,97101.11
2019-04-26T16:06:45.616Z,97101.11
2019-04-26T16:09:55.985Z,97108.94
2019-04-26T16:13:16.167Z,97108.94
2019-04-26T16:16:12.503Z,97116.20
2019-04-26T16:19:19.135Z,97126.63
2019-04-26T16:22:30.084Z,97139.48
2019-04-26T16:25:38.407Z,97149.55
2019-04-26T16:28:45.927Z,97159.60
2019-04-26T16:32:12.507Z,97174.66
2019-04-26T16:35:25.605Z,97153.91
2019-04-26T16:38:37.829Z,97144.09
2019-04-26T16:41:45.247Z,97144.06
2019-04-26T16:44:53.109Z,97140.08
2019-04-26T16:48:01.882Z,97133.93
2019-04-26T16:51:10.037Z,97132.49
2019-04-26T16:54:22.076Z,97132.49
2019-04-26T16:57:25.787Z,97142.31
2019-04-26T17:00:50.205Z,97139.44
2019-04-26T17:03:45.149Z,97137.46
2019-04-26T17:06:49.681Z,97130.30
2019-04-26T17:09:59.366Z,97142.09
2019-04-26T17:13:05.387Z,97142.09
2019-04-26T17:16:12.864Z,97135.43
2019-04-26T17:19:20.448Z,97137.44
2019-04-26T17:22:44.689Z,97142.16
2019-04-26T17:25:55.193Z,97180.52
2019-04-26T17:29:02.414Z,97180.52
2019-04-26T17:32:13.941Z,97182.23
2019-04-26T17:35:18.973Z,97182.04
2019-04-26T17:38:27.564Z,97193.21
2019-04-26T17:41:35.053Z,97184.11
2019-04-26T17:44:42.045Z,97184.11
2019-04-26T17:47:50.677Z,97187.17
2019-04-26T17:50:58.015Z,97193.45
2019-04-26T17:54:26.509Z,97181.80
2019-04-26T17:57:16.263Z,97181.12
2019-04-26T18:00:26.877Z,97176.10
2019-04-26T18:03:35.393Z,97182.41
2019-04-26T18:06:45.368Z,97182.41
2019-04-26T18:09:52.576Z,97182.67
2019-04-26T18:13:01.792Z,97175.47
2019-04-26T18:16:10.353Z,97173.52
2019-04-26T18:19:31.903Z,97168.45
2019-04-26T18:22:47.127Z,97183.42
2019-04-26T18:25:54.259Z,97186.14
2019-04-26T18:29:01.309Z,97201.11
2019-04-26T18:32:09.561Z,97201.95
2019-04-26T18:35:16.980Z,97204.42
2019-04-26T18:38:24.806Z,97204.42
2019-04-26T18:41:33.965Z,97235.17
2019-04-26T18:44:47.386Z,97234.25
2019-04-26T18:47:50.247Z,97235.58
2019-04-26T18:50:58.477Z,97227.33
2019-04-26T18:54:23.403Z,97229.92
2019-04-26T18:57:30.594Z,97230.39
2019-04-26T19:00:39.267Z,97259.45
2019-04-26T19:03:46.268Z,97259.45
2019-04-26T19:06:55.669Z,97256.33
2019-04-26T19:10:05.418Z,97255.80
2019-04-26T19:13:36.555Z,97259.89
2019-04-26T19:16:50.256Z,97263.88
2019-04-26T19:20:03.698Z,97272.63
2019-04-26T19:23:13.074Z,97265.97
2019-04-26T19:26:31.750Z,97266.81
2019-04-26T19:29:33.619Z,97264.95
2019-04-26T19:32:39.581Z,97257.50
2019-04-26T19:35:47.539Z,97250.05
2019-04-26T19:38:57.995Z,97256.33
2019-04-26T19:42:06.240Z,97259.98
2019-04-26T19:45:19.531Z,97256.95
2019-04-26T19:48:31.428Z,97255.16
2019-04-26T19:52:03.564Z,97234.65
2019-04-26T19:55:11.469Z,97232.98
2019-04-26T19:58:26.574Z,97238.92
2019-04-26T20:01:33.707Z,97232.25
2019-04-26T20:04:44.340Z,97232.25
2019-04-26T20:07:51.956Z,97251.02
2019-04-26T20:11:01.319Z,97262.91
2019-04-26T20:14:09.298Z,97252.24
2019-04-26T20:17:19.746Z,97247.20
2019-04-26T20:20:27.790Z,97245.69
2019-04-26T20:23:38.385Z,97236.91
2019-04-26T20:26:44.953Z,97236.91
2019-04-26T20:29:52.302Z,97246.95
2019-04-26T20:33:01.777Z,97243.61
2019-04-26T20:36:09.754Z,97233.64
2019-04-26T20:39:20.886Z,97230.91
2019-04-26T20:42:26.298Z,97228.89
2019-04-26T20:45:41.377Z,97232.27
2019-04-26T20:48:42.678Z,97232.08
2019-04-26T20:51:51.909Z,97237.89
2019-04-26T20:55:00.528Z,97234.19
2019-04-26T20:58:09.425Z,97234.19
2019-04-26T21:01:17.444Z,97251.14
2019-04-26T21:04:35.099Z,97240.80
2019-04-26T21:07:32.590Z,97243.33
2019-04-26T21:10:41.581Z,97239.73
2019-04-26T21:13:49.732Z,97222.70
2019-04-26T21:20:23.316Z,97215.55
2019-04-26T21:23:35.005Z,97224.77
2019-04-26T21:26:58.308Z,97239.40
2019-04-26T21:30:21.795Z,97238.42
2019-04-26T21:33:38.926Z,97243.11
2019-04-26T21:36:59.688Z,97237.46
2019-04-26T21:40:23.169Z,97234.93
2019-04-26T21:43:29.446Z,97254.97
2019-04-26T21:46:38.578Z,97260.71
2019-04-26T21:49:45.629Z,97271.64
2019-04-26T21:52:54.113Z,97271.64
2019-04-26T21:56:02.934Z,97266.96
2019-04-26T21:59:10.394Z,97263.88
2019-04-26T22:02:17.799Z,97254.94
2019-04-26T22:05:26.571Z,97246.39
2019-04-26T22:08:50.477Z,97246.20
2019-04-26T22:11:58.283Z,97256.75
2019-04-26T22:15:13.660Z,97256.75
2019-04-26T22:18:41.294Z,97257.44
2019-04-26T22:21:59.447Z,97262.61
2019-04-26T22:25:09.354Z,97258.03
2019-04-26T22:28:16.357Z,97259.45
2019-04-26T22:31:23.728Z,97250.48
2019-04-26T22:34:30.681Z,97252.67
2019-04-26T22:37:37.475Z,97250.02
2019-04-26T22:40:44.075Z,97251.19
2019-04-26T22:43:55.558Z,97241.66
2019-04-26T22:47:15.733Z,97251.50
2019-04-26T22:50:25.125Z,97246.47
2019-04-26T22:53:32.863Z,97235.36
2019-04-26T22:56:39.780Z,97234.39
2019-04-26T22:59:50.119Z,97240.05
2019-04-26T23:02:58.087Z,97240.95
2019-04-26T23:06:07.877Z,97248.63
2019-04-26T23:09:16.966Z,97236.75
2019-04-26T23:12:27.971Z,97236.75
2019-04-26T23:15:37.366Z,97246.30
2019-04-26T23:19:03.736Z,97249.02
2019-04-26T23:22:12.773Z,97243.92
2019-04-26T23:25:21.300Z,97235.60
2019-04-26T23:28:33.950Z,97235.51
2019-04-26T23:31:41.653Z,97232.78
2019-04-26T23:34:46.590Z,97222.97
2019-04-26T23:37:56.562Z,97226.48
2019-04-26T23:41:07.084Z,97226.48
2019-04-26T23:44:10.778Z,97224.72
2019-04-26T23:47:22.401Z,97227.84
2019-04-26T23:50:29.400Z,97230.16
2019-04-26T23:53:36.444Z,97219.13
2019-04-26T23:56:44.256Z,97219.13
2019-04-26T23:59:56.451Z,97229.64
